createdAt,value
2019-05-15T00:00:20.166Z,18.00
2019-05-15T00:04:25.045Z,18.00
2019-05-15T00:08:29.585Z,18.00
2019-05-15T00:12:34.140Z,18.00
2019-05-15T00:16:39.002Z,17.90
2019-05-15T00:20:43.557Z,17.90
2019-05-15T00:24:48.844Z,17.90
2019-05-15T00:28:53.885Z,17.90
2019-05-15T00:32:58.900Z,17.90
2019-05-15T00:37:03.480Z,17.90
2019-05-15T00:41:09.440Z,17.90
2019-05-15T00:45:15.157Z,17.80
2019-05-15T00:49:19.710Z,17.80
2019-05-15T00:53:24.242Z,17.80
2019-05-15T00:57:29.017Z,17.80
2019-05-15T01:01:33.626Z,17.80
2019-05-15T01:05:38.715Z,17.80
2019-05-15T01:09:44.505Z,17.70
2019-05-15T01:13:49.059Z,17.70
2019-05-15T01:17:53.594Z,17.70
2019-05-15T01:21:58.739Z,17.70
2019-05-15T01:26:03.579Z,17.60
2019-05-15T01:30:09.058Z,17.60
2019-05-15T01:34:14.280Z,17.70
2019-05-15T01:38:18.979Z,17.70
2019-05-15T01:42:23.713Z,17.60
2019-05-15T01:46:28.675Z,17.60
2019-05-15T01:50:33.346Z,17.60
2019-05-15T01:54:38.503Z,17.50
2019-05-15T01:58:43.402Z,17.50
2019-05-15T02:02:48.566Z,17.50
2019-05-15T02:06:53.114Z,17.50
2019-05-15T02:10:58.824Z,17.50
2019-05-15T02:15:08.365Z,17.50
2019-05-15T02:19:12.318Z,17.50
2019-05-15T02:23:18.842Z,17.50
2019-05-15T02:27:22.327Z,17.50
2019-05-15T02:31:29.866Z,17.40
2019-05-15T02:35:32.271Z,17.40
2019-05-15T02:39:38.880Z,17.40
2019-05-15T02:43:42.188Z,17.40
2019-05-15T02:47:48.754Z,17.30
2019-05-15T02:51:52.154Z,17.40
2019-05-15T02:55:59.854Z,17.30
2019-05-15T03:00:02.058Z,17.30
2019-05-15T03:04:09.296Z,17.30
2019-05-15T03:08:11.966Z,17.30
2019-05-15T03:12:19.532Z,17.30
2019-05-15T03:16:21.900Z,17.20
2019-05-15T03:20:29.467Z,17.20
2019-05-15T03:24:33.067Z,17.20
2019-05-15T03:28:39.272Z,17.20
2019-05-15T03:32:53.031Z,17.20
2019-05-15T03:36:53.078Z,17.20
2019-05-15T03:40:55.558Z,17.20
2019-05-15T03:45:00.178Z,17.10
2019-05-15T03:49:04.706Z,17.10
2019-05-15T03:53:10.166Z,17.10
2019-05-15T03:57:19.172Z,17.10
2019-05-15T04:01:30.188Z,17.10
2019-05-15T04:05:29.347Z,17.10
2019-05-15T04:09:33.774Z,17.10
2019-05-15T04:13:39.747Z,17.10
2019-05-15T04:17:43.760Z,17.10
2019-05-15T04:21:49.449Z,17.00
2019-05-15T04:25:54.547Z,17.00
2019-05-15T04:29:59.301Z,17.00
2019-05-15T04:34:04.067Z,17.00
2019-05-15T04:38:09.481Z,17.00
2019-05-15T04:42:14.222Z,17.00
2019-05-15T04:46:19.950Z,17.00
2019-05-15T04:50:24.989Z,17.00
2019-05-15T04:54:29.530Z,16.90
2019-05-15T04:58:34.098Z,16.90
2019-05-15T05:02:40.171Z,16.90
2019-05-15T05:06:44.483Z,16.90
2019-05-15T05:10:49.103Z,16.90
2019-05-15T05:14:53.748Z,16.90
2019-05-15T05:18:59.432Z,16.90
2019-05-15T05:23:04.821Z,16.90
2019-05-15T05:27:09.352Z,17.00
2019-05-15T05:31:14.377Z,17.00
2019-05-15T05:35:19.033Z,17.00
2019-05-15T05:39:23.585Z,17.10
2019-05-15T05:43:29.936Z,17.20
2019-05-15T05:47:33.659Z,17.30
2019-05-15T05:51:38.731Z,17.30
2019-05-15T05:55:43.430Z,17.40
2019-05-15T05:59:48.993Z,17.50
2019-05-15T06:03:53.749Z,17.50
2019-05-15T06:07:58.285Z,17.60
2019-05-15T06:12:02.818Z,17.70
2019-05-15T06:16:08.469Z,17.80
2019-05-15T06:20:14.281Z,17.80
2019-05-15T06:24:19.094Z,17.90
2019-05-15T06:28:23.913Z,17.90
2019-05-15T06:32:29.043Z,18.00
2019-05-15T06:36:33.781Z,18.00
2019-05-15T06:40:39.574Z,18.00
2019-05-15T06:44:44.540Z,18.00
2019-05-15T06:48:49.098Z,18.00
2019-05-15T06:52:53.641Z,18.00
2019-05-15T06:56:58.416Z,18.00
2019-05-15T07:01:03.213Z,18.00
2019-05-15T07:05:08.204Z,17.90
2019-05-15T07:09:12.922Z,17.90
2019-05-15T07:13:18.272Z,17.90
2019-05-15T07:17:23.470Z,17.90
2019-05-15T07:21:28.502Z,17.90
2019-05-15T07:25:33.118Z,17.90
2019-05-15T07:29:38.611Z,17.90
2019-05-15T07:33:44.137Z,17.90
2019-05-15T07:37:48.778Z,18.00
2019-05-15T07:41:53.318Z,18.10
2019-05-15T07:45:59.014Z,18.10
2019-05-15T07:50:08.719Z,18.20
2019-05-15T07:54:13.405Z,18.20
2019-05-15T07:58:21.494Z,18.20
2019-05-15T08:02:24.413Z,18.30
2019-05-15T08:06:29.164Z,18.40
2019-05-15T08:10:33.763Z,18.50
2019-05-15T08:14:38.887Z,18.50
2019-05-15T08:18:43.777Z,18.50
2019-05-15T08:22:49.108Z,18.50
2019-05-15T08:26:53.737Z,18.60
2019-05-15T08:30:58.824Z,18.60
2019-05-15T08:35:05.450Z,18.60
2019-05-15T08:39:10.065Z,18.70
2019-05-15T08:43:14.838Z,18.70
2019-05-15T08:47:19.443Z,18.70
2019-05-15T08:51:23.993Z,18.80
2019-05-15T08:55:28.530Z,18.80
2019-05-15T08:59:33.142Z,18.80
2019-05-15T09:03:38.167Z,18.80
2019-05-15T09:07:43.194Z,18.90
2019-05-15T09:11:48.396Z,18.90
2019-05-15T09:15:53.023Z,19.00
2019-05-15T09:19:58.845Z,19.00
2019-05-15T09:24:03.751Z,19.00
2019-05-15T09:28:08.782Z,19.10
2019-05-15T09:32:13.766Z,19.10
2019-05-15T09:36:20.204Z,19.10
2019-05-15T09:40:37.795Z,19.10
2019-05-15T09:44:29.885Z,19.10
2019-05-15T09:48:34.431Z,19.10
2019-05-15T09:52:39.310Z,19.10
2019-05-15T09:56:43.855Z,19.20
2019-05-15T10:00:52.023Z,19.20
2019-05-15T10:05:05.986Z,19.20
2019-05-15T10:09:01.205Z,19.20
2019-05-15T10:13:05.745Z,19.20
2019-05-15T10:17:10.278Z,19.20
2019-05-15T10:21:14.806Z,19.20
2019-05-15T10:25:19.414Z,19.20
2019-05-15T10:29:24.003Z,19.20
2019-05-15T10:33:29.605Z,19.30
2019-05-15T10:37:34.632Z,19.20
2019-05-15T10:41:39.181Z,19.20
2019-05-15T10:45:43.846Z,19.30
2019-05-15T10:49:48.566Z,19.30
2019-05-15T10:53:53.427Z,19.30
2019-05-15T10:57:57.963Z,19.30
2019-05-15T11:02:02.569Z,19.30
2019-05-15T11:06:09.022Z,19.30
2019-05-15T11:10:13.655Z,19.30
2019-05-15T11:14:18.533Z,19.40
2019-05-15T11:18:23.192Z,19.40
2019-05-15T11:22:29.840Z,19.40
2019-05-15T11:26:33.671Z,19.40
2019-05-15T11:30:39.322Z,19.50
2019-05-15T11:34:44.416Z,19.50
2019-05-15T11:38:48.971Z,19.50
2019-05-15T11:42:53.530Z,19.50
2019-05-15T11:46:58.662Z,19.50
2019-05-15T11:51:03.389Z,19.50
2019-05-15T11:55:08.650Z,19.50
2019-05-15T11:59:13.270Z,19.60
2019-05-15T12:03:18.929Z,19.60
2019-05-15T12:07:23.989Z,19.60
2019-05-15T12:11:36.193Z,19.70
2019-05-15T12:15:33.974Z,19.70
2019-05-15T12:19:39.162Z,19.70
2019-05-15T12:23:43.837Z,19.70
2019-05-15T12:27:49.080Z,19.70
2019-05-15T12:31:54.163Z,19.70
2019-05-15T12:35:58.690Z,19.60
2019-05-15T13:00:38.318Z,19.50
2019-05-15T13:04:42.752Z,19.50
2019-05-15T13:08:48.871Z,19.50
2019-05-15T13:13:00.930Z,19.50
2019-05-15T13:16:59.548Z,19.50
2019-05-15T13:21:03.973Z,19.40
2019-05-15T13:25:09.096Z,19.40
2019-05-15T13:29:13.642Z,19.40
2019-05-15T13:33:18.247Z,19.40
2019-05-15T13:37:27.249Z,19.40
2019-05-15T13:41:28.486Z,19.40
2019-05-15T13:45:33.089Z,19.30
2019-05-15T13:49:38.608Z,19.30
2019-05-15T13:53:43.517Z,19.30
2019-05-15T13:57:48.598Z,19.30
2019-05-15T14:01:53.370Z,19.30
2019-05-15T14:05:58.518Z,19.20
2019-05-15T14:10:03.973Z,19.20
2019-05-15T14:14:08.508Z,19.30
2019-05-15T14:18:14.168Z,19.40
2019-05-15T14:22:19.022Z,19.40
2019-05-15T14:26:23.563Z,19.50
2019-05-15T14:30:29.426Z,19.50
2019-05-15T14:34:34.030Z,19.50
2019-05-15T14:38:38.821Z,19.60
2019-05-15T14:42:43.356Z,19.60
2019-05-15T14:46:50.818Z,19.60
2019-05-15T14:50:53.373Z,19.60
2019-05-15T14:54:59.071Z,19.80
2019-05-15T14:59:04.198Z,19.70
2019-05-15T15:03:09.781Z,19.70
2019-05-15T15:07:14.913Z,19.70
2019-05-15T15:11:19.754Z,19.80
2019-05-15T15:15:24.570Z,19.80
2019-05-15T15:19:29.367Z,19.80
2019-05-15T15:23:33.951Z,19.70
2019-05-15T15:27:39.146Z,19.70
2019-05-15T15:31:44.221Z,19.70
2019-05-15T15:35:48.934Z,19.80
2019-05-15T15:39:53.457Z,19.80
2019-05-15T15:43:58.683Z,19.80
2019-05-15T15:48:03.417Z,19.80
2019-05-15T15:52:08.775Z,19.80
2019-05-15T15:56:13.911Z,19.90
2019-05-15T16:00:19.389Z,19.90
2019-05-15T16:04:24.206Z,19.90
2019-05-15T16:08:28.749Z,19.90
2019-05-15T16:12:33.253Z,19.90
2019-05-15T16:16:38.189Z,19.80
2019-05-15T16:20:42.905Z,19.90
2019-05-15T16:24:49.131Z,19.90
2019-05-15T16:28:53.850Z,19.90
2019-05-15T16:32:58.641Z,19.90
2019-05-15T16:37:03.327Z,19.90
2019-05-15T16:41:09.040Z,19.90
2019-05-15T16:45:14.122Z,19.90
2019-05-15T16:49:19.299Z,19.90
2019-05-15T16:53:25.430Z,19.90
2019-05-15T16:57:30.273Z,19.90
2019-05-15T17:01:35.289Z,19.90
2019-05-15T17:05:39.867Z,19.90
2019-05-15T17:09:44.394Z,19.90
2019-05-15T17:13:49.019Z,19.90
2019-05-15T17:17:53.549Z,20.00
2019-05-15T17:21:58.766Z,19.90
2019-05-15T17:26:03.875Z,20.00
2019-05-15T17:30:09.528Z,20.00
2019-05-15T17:34:14.636Z,20.00
2019-05-15T17:38:19.245Z,20.00
2019-05-15T17:42:23.782Z,20.00
2019-05-15T17:46:29.536Z,20.00
2019-05-15T17:50:45.876Z,20.00
2019-05-15T17:54:39.995Z,19.90
2019-05-15T17:58:44.714Z,19.90
2019-05-15T18:02:51.002Z,19.90
2019-05-15T18:06:56.269Z,20.00
2019-05-15T18:11:00.795Z,20.00
2019-05-15T18:15:08.775Z,20.00
2019-05-15T18:19:12.359Z,20.00
2019-05-15T18:23:18.886Z,20.00
2019-05-15T18:27:22.378Z,20.00
2019-05-15T18:31:28.635Z,20.10
2019-05-15T18:35:32.951Z,20.10
2019-05-15T18:39:38.942Z,20.20
2019-05-15T18:43:43.060Z,20.20
2019-05-15T18:47:48.038Z,20.20
2019-05-15T18:51:53.012Z,20.30
2019-05-15T18:55:58.388Z,20.30
2019-05-15T19:00:04.234Z,20.40
2019-05-15T19:04:09.061Z,20.40
2019-05-15T19:08:13.593Z,20.40
2019-05-15T19:12:18.198Z,20.40
2019-05-15T19:16:22.740Z,20.40
2019-05-15T19:20:28.084Z,20.50
2019-05-15T19:24:33.162Z,20.50
2019-05-15T19:28:39.075Z,20.50
2019-05-15T19:32:44.181Z,20.50
2019-05-15T19:36:48.900Z,20.50
2019-05-15T19:40:53.636Z,20.50
2019-05-15T19:44:58.972Z,20.50
2019-05-15T19:49:05.439Z,20.50
2019-05-15T19:53:10.526Z,20.40
2019-05-15T19:57:15.446Z,20.40
2019-05-15T20:01:20.251Z,20.30
2019-05-15T20:05:24.995Z,20.30
2019-05-15T20:09:29.782Z,20.20
2019-05-15T20:13:34.521Z,20.20
2019-05-15T20:17:39.223Z,20.20
2019-05-15T20:21:43.958Z,20.10
2019-05-15T20:25:48.874Z,20.10
2019-05-15T20:29:53.607Z,20.00
2019-05-15T20:34:05.150Z,20.00
2019-05-15T20:38:04.805Z,19.90
2019-05-15T20:42:09.339Z,19.80
2019-05-15T20:46:13.877Z,19.80
2019-05-15T20:50:19.379Z,19.70
2019-05-15T20:54:24.300Z,19.70
2019-05-15T20:58:28.849Z,19.60
2019-05-15T21:02:33.381Z,19.60
2019-05-15T21:06:37.914Z,19.60
2019-05-15T21:10:43.203Z,19.50
2019-05-15T21:14:48.407Z,19.50
2019-05-15T21:18:53.817Z,19.40
2019-05-15T21:23:01.082Z,19.40
2019-05-15T21:27:03.794Z,19.40
2019-05-15T21:31:08.835Z,19.30
2019-05-15T21:35:13.782Z,19.30
2019-05-15T21:39:18.586Z,19.20
2019-05-15T21:43:23.110Z,19.20
2019-05-15T21:47:28.031Z,19.20
2019-05-15T21:51:32.657Z,19.20
2019-05-15T21:55:38.848Z,19.20
2019-05-15T21:59:42.917Z,19.10
2019-05-15T22:03:48.171Z,19.10
2019-05-15T22:07:53.157Z,19.00
2019-05-15T22:12:00.990Z,19.00
2019-05-15T22:16:04.360Z,19.00
2019-05-15T22:20:09.494Z,19.00
2019-05-15T22:24:14.117Z,19.00
2019-05-15T22:28:18.721Z,18.90
2019-05-15T22:32:23.253Z,18.90
2019-05-15T22:36:28.161Z,18.90
2019-05-15T22:40:32.745Z,18.90
2019-05-15T22:44:38.492Z,18.90
2019-05-15T22:48:43.366Z,18.80
2019-05-15T22:52:49.261Z,18.80
2019-05-15T22:56:54.083Z,18.80
2019-05-15T23:00:59.743Z,18.80
2019-05-15T23:05:19.789Z,18.80
2019-05-15T23:09:12.497Z,18.70
2019-05-15T23:13:17.821Z,18.70
2019-05-15T23:17:22.997Z,18.70
2019-05-15T23:21:28.829Z,18.70
2019-05-15T23:25:33.850Z,18.70
2019-05-15T23:29:38.652Z,18.60
2019-05-15T23:33:43.229Z,18.60
2019-05-15T23:37:48.603Z,18.60
2019-05-15T23:41:53.531Z,18.60
2019-05-15T23:45:58.926Z,18.60
2019-05-15T23:50:04.689Z,18.60
2019-05-15T23:54:09.217Z,18.50
2019-05-15T23:58:13.738Z,18.50
